createdAt,value
2019-03-26T00:00:04.661Z,1008.11
2019-03-26T00:01:15.426Z,1008.13
2019-03-26T00:02:26.660Z,1008.13
2019-03-26T00:03:37.374Z,1008.12
2019-03-26T00:04:48.088Z,1008.16
2019-03-26T00:05:59.296Z,1008.14
2019-03-26T00:07:10.509Z,1008.21
2019-03-26T00:08:21.226Z,1008.22
2019-03-26T00:09:31.927Z,1008.26
2019-03-26T00:10:42.635Z,1008.25
2019-03-26T00:11:53.428Z,1008.24
2019-03-26T00:13:04.067Z,1008.29
2019-03-26T00:14:15.778Z,1008.30
2019-03-26T00:15:26.648Z,1008.30
2019-03-26T00:16:37.361Z,1008.33
2019-03-26T00:17:48.655Z,1008.33
2019-03-26T00:18:59.868Z,1008.33
2019-03-26T00:20:10.567Z,1008.35
2019-03-26T00:21:22.273Z,1008.33
2019-03-26T00:22:33.492Z,1008.32
2019-03-26T00:23:44.715Z,1008.34
2019-03-26T00:24:55.425Z,1008.34
2019-03-26T00:26:06.134Z,1008.36
2019-03-26T00:27:16.847Z,1008.40
2019-03-26T00:28:27.560Z,1008.39
2019-03-26T00:29:38.272Z,1008.35
2019-03-26T00:30:48.985Z,1008.35
2019-03-26T00:31:59.689Z,1008.34
2019-03-26T00:33:10.399Z,1008.36
2019-03-26T00:34:21.097Z,1008.33
2019-03-26T00:35:32.309Z,1008.39
2019-03-26T00:36:43.012Z,1008.39
2019-03-26T00:37:53.739Z,1008.41
2019-03-26T00:39:04.433Z,1008.41
2019-03-26T00:40:15.151Z,1008.43
2019-03-26T00:41:25.857Z,1008.37
2019-03-26T00:42:36.559Z,1008.40
2019-03-26T00:43:47.264Z,1008.42
2019-03-26T00:44:57.970Z,1008.45
2019-03-26T00:46:08.673Z,1008.41
2019-03-26T00:47:19.371Z,1008.45
2019-03-26T00:48:30.075Z,1008.40
2019-03-26T00:49:40.770Z,1008.41
2019-03-26T00:50:51.475Z,1008.42
2019-03-26T00:52:02.166Z,1008.41
2019-03-26T00:53:12.869Z,1008.41
2019-03-26T00:54:24.061Z,1008.42
2019-03-26T00:55:34.751Z,1008.41
2019-03-26T00:56:45.438Z,1008.46
2019-03-26T00:57:56.133Z,1008.48
2019-03-26T00:59:06.831Z,1008.47
2019-03-26T01:00:17.535Z,1008.51
2019-03-26T01:01:28.237Z,1008.49
2019-03-26T01:02:39.408Z,1008.49
2019-03-26T01:03:50.644Z,1008.55
2019-03-26T01:05:01.847Z,1008.53
2019-03-26T01:06:12.535Z,1008.55
2019-03-26T01:07:23.230Z,1008.47
2019-03-26T01:08:33.925Z,1008.50
2019-03-26T01:09:44.616Z,1008.40
2019-03-26T01:10:55.302Z,1008.46
2019-03-26T01:12:05.992Z,1008.47
2019-03-26T01:13:16.696Z,1008.51
2019-03-26T01:14:27.411Z,1008.57
2019-03-26T01:15:38.090Z,1008.57
2019-03-26T01:16:48.784Z,1008.58
2019-03-26T01:17:59.472Z,1008.54
2019-03-26T01:19:10.165Z,1008.55
2019-03-26T01:20:20.851Z,1008.57
2019-03-26T01:21:31.536Z,1008.59
2019-03-26T01:22:42.217Z,1008.63
2019-03-26T01:23:52.919Z,1008.66
2019-03-26T01:25:03.604Z,1008.64
2019-03-26T01:26:14.285Z,1008.58
2019-03-26T01:27:24.981Z,1008.60
2019-03-26T01:28:35.669Z,1008.59
2019-03-26T01:29:46.364Z,1008.69
2019-03-26T01:30:57.047Z,1008.61
2019-03-26T01:32:07.737Z,1008.61
2019-03-26T01:33:18.428Z,1008.59
2019-03-26T01:34:29.616Z,1008.60
2019-03-26T01:35:40.301Z,1008.60
2019-03-26T01:36:50.991Z,1008.60
2019-03-26T01:38:01.680Z,1008.62
2019-03-26T01:39:12.368Z,1008.65
2019-03-26T01:40:23.058Z,1008.62
2019-03-26T01:41:33.761Z,1008.65
2019-03-26T01:42:44.457Z,1008.66
2019-03-26T01:43:55.138Z,1008.67
2019-03-26T01:45:05.837Z,1008.66
2019-03-26T01:46:16.518Z,1008.68
2019-03-26T01:47:27.706Z,1008.73
2019-03-26T01:48:38.384Z,1008.75
2019-03-26T01:49:49.083Z,1008.76
2019-03-26T01:50:59.773Z,1008.74
2019-03-26T01:52:10.510Z,1008.74
2019-03-26T01:53:21.139Z,1008.77
2019-03-26T01:54:31.827Z,1008.77
2019-03-26T01:55:42.519Z,1008.77
2019-03-26T01:56:53.703Z,1008.82
2019-03-26T01:58:04.383Z,1008.78
2019-03-26T01:59:15.069Z,1008.77
2019-03-26T02:00:26.248Z,1008.79
2019-03-26T02:01:36.936Z,1008.79
2019-03-26T02:02:48.117Z,1008.80
2019-03-26T02:03:58.803Z,1008.79
2019-03-26T02:05:09.499Z,1008.79
2019-03-26T02:06:20.266Z,1008.77
2019-03-26T02:07:30.870Z,1008.82
2019-03-26T02:08:41.553Z,1008.82
2019-03-26T02:09:52.243Z,1008.83
2019-03-26T02:11:02.932Z,1008.80
2019-03-26T02:12:13.629Z,1008.77
2019-03-26T02:13:24.819Z,1008.82
2019-03-26T02:14:36.987Z,1008.86
2019-03-26T02:15:47.675Z,1008.87
2019-03-26T02:16:58.365Z,1008.87
2019-03-26T02:18:09.118Z,1008.89
2019-03-26T02:19:19.731Z,1008.89
2019-03-26T02:20:30.439Z,1008.90
2019-03-26T02:21:41.122Z,1008.91
2019-03-26T02:22:51.811Z,1008.89
2019-03-26T02:24:02.670Z,1008.91
2019-03-26T02:25:13.354Z,1008.94
2019-03-26T02:26:24.041Z,1008.93
2019-03-26T02:27:35.216Z,1008.88
2019-03-26T02:28:45.893Z,1008.91
2019-03-26T02:29:56.584Z,1008.89
2019-03-26T02:31:07.758Z,1008.90
2019-03-26T02:32:18.939Z,1008.94
2019-03-26T02:33:29.619Z,1008.88
2019-03-26T02:34:40.305Z,1008.91
2019-03-26T02:35:51.493Z,1008.88
2019-03-26T02:37:02.183Z,1008.88
2019-03-26T02:38:12.874Z,1008.89
2019-03-26T02:39:23.566Z,1008.89
2019-03-26T02:40:34.251Z,1008.93
2019-03-26T02:41:44.936Z,1008.99
2019-03-26T02:42:55.620Z,1008.95
2019-03-26T02:44:06.306Z,1008.94
2019-03-26T02:45:17.001Z,1008.96
2019-03-26T02:46:27.674Z,1008.96
2019-03-26T02:47:38.357Z,1008.97
2019-03-26T02:48:49.039Z,1009.04
2019-03-26T02:49:59.728Z,1009.02
2019-03-26T02:51:10.903Z,1009.07
2019-03-26T02:52:21.585Z,1009.08
2019-03-26T02:53:32.754Z,1009.08
2019-03-26T02:54:43.934Z,1009.06
2019-03-26T02:55:54.617Z,1009.07
2019-03-26T02:57:05.307Z,1009.08
2019-03-26T02:58:15.981Z,1009.08
2019-03-26T02:59:26.670Z,1009.13
2019-03-26T03:00:37.835Z,1009.12
2019-03-26T03:01:48.510Z,1009.17
2019-03-26T03:02:59.193Z,1009.26
2019-03-26T03:04:09.874Z,1009.25
2019-03-26T03:05:34.426Z,1009.24
2019-03-26T03:06:31.728Z,1009.28
2019-03-26T03:07:42.902Z,1009.25
2019-03-26T03:08:53.598Z,1009.27
2019-03-26T03:10:04.265Z,1009.24
2019-03-26T03:11:14.938Z,1009.30
2019-03-26T03:12:25.609Z,1009.28
2019-03-26T03:13:36.293Z,1009.28
2019-03-26T03:14:46.964Z,1009.31
2019-03-26T03:15:58.644Z,1009.28
2019-03-26T03:17:09.324Z,1009.31
2019-03-26T03:18:20.007Z,1009.30
2019-03-26T03:19:30.679Z,1009.30
2019-03-26T03:20:41.355Z,1009.29
2019-03-26T03:21:52.038Z,1009.31
2019-03-26T03:23:02.710Z,1009.32
2019-03-26T03:24:13.384Z,1009.39
2019-03-26T03:25:24.061Z,1009.44
2019-03-26T03:26:35.221Z,1009.42
2019-03-26T03:27:45.896Z,1009.41
2019-03-26T03:28:56.569Z,1009.41
2019-03-26T03:30:07.261Z,1009.40
2019-03-26T03:31:17.912Z,1009.42
2019-03-26T03:32:28.605Z,1009.39
2019-03-26T03:33:39.770Z,1009.41
2019-03-26T03:34:50.941Z,1009.42
2019-03-26T03:36:01.599Z,1009.43
2019-03-26T03:37:12.284Z,1009.43
2019-03-26T03:38:22.962Z,1009.44
2019-03-26T03:39:33.622Z,1009.44
2019-03-26T03:40:44.285Z,1009.47
2019-03-26T03:41:54.954Z,1009.50
2019-03-26T03:43:05.620Z,1009.52
2019-03-26T03:44:16.291Z,1009.51
2019-03-26T03:45:26.953Z,1009.52
2019-03-26T03:46:37.615Z,1009.51
2019-03-26T03:47:48.277Z,1009.55
2019-03-26T03:48:58.944Z,1009.56
2019-03-26T03:50:09.616Z,1009.55
2019-03-26T03:51:20.768Z,1009.52
2019-03-26T03:52:31.917Z,1009.57
2019-03-26T03:53:42.583Z,1009.60
2019-03-26T03:54:53.241Z,1009.60
2019-03-26T03:56:03.901Z,1009.64
2019-03-26T03:57:14.571Z,1009.67
2019-03-26T03:58:25.236Z,1009.66
2019-03-26T03:59:35.906Z,1009.61
2019-03-26T04:00:46.550Z,1009.63
2019-03-26T04:01:57.212Z,1009.64
2019-03-26T04:03:07.871Z,1009.62
2019-03-26T04:04:18.533Z,1009.61
2019-03-26T04:05:29.175Z,1009.60
2019-03-26T04:06:39.830Z,1009.69
2019-03-26T04:07:50.632Z,1009.71
2019-03-26T04:09:01.292Z,1009.73
2019-03-26T04:10:11.948Z,1009.68
2019-03-26T04:11:22.604Z,1009.74
2019-03-26T04:12:34.745Z,1009.75
2019-03-26T04:13:45.898Z,1009.69
2019-03-26T04:14:56.556Z,1009.71
2019-03-26T04:16:07.201Z,1009.75
2019-03-26T04:17:17.858Z,1009.75
2019-03-26T04:18:28.513Z,1009.75
2019-03-26T04:19:39.171Z,1009.77
2019-03-26T04:20:49.818Z,1009.77
2019-03-26T04:22:01.468Z,1009.82
2019-03-26T04:23:12.627Z,1009.79
2019-03-26T04:24:23.765Z,1009.79
2019-03-26T04:25:34.419Z,1009.84
2019-03-26T04:26:45.060Z,1009.86
2019-03-26T04:27:55.713Z,1009.83
2019-03-26T04:29:06.365Z,1009.86
2019-03-26T04:30:17.014Z,1009.86
2019-03-26T04:31:27.673Z,1009.88
2019-03-26T04:32:38.316Z,1009.91
2019-03-26T04:33:48.968Z,1009.96
2019-03-26T04:34:59.618Z,1009.99
2019-03-26T04:36:24.808Z,1009.97
2019-03-26T04:37:20.925Z,1010.01
2019-03-26T04:38:31.566Z,1010.09
2019-03-26T04:39:42.218Z,1010.07
2019-03-26T04:40:52.862Z,1010.07
2019-03-26T04:42:04.038Z,1010.06
2019-03-26T04:43:14.644Z,1010.06
2019-03-26T04:44:25.300Z,1010.07
2019-03-26T04:45:35.948Z,1010.08
2019-03-26T04:46:46.601Z,1010.13
2019-03-26T04:47:57.253Z,1010.14
2019-03-26T04:49:07.906Z,1010.09
2019-03-26T04:50:18.571Z,1010.08
2019-03-26T04:51:29.725Z,1010.10
2019-03-26T04:52:40.384Z,1010.09
2019-03-26T04:53:51.545Z,1010.09
2019-03-26T04:55:02.199Z,1010.08
2019-03-26T04:56:13.335Z,1010.08
2019-03-26T04:57:23.992Z,1010.09
2019-03-26T04:58:34.636Z,1010.08
2019-03-26T04:59:45.793Z,1010.09
2019-03-26T05:00:56.447Z,1010.05
2019-03-26T05:02:07.589Z,1010.07
2019-03-26T05:03:18.244Z,1010.13
2019-03-26T05:04:29.397Z,1010.10
2019-03-26T05:05:40.060Z,1010.12
2019-03-26T05:06:50.708Z,1010.10
2019-03-26T05:08:01.851Z,1010.08
2019-03-26T05:09:12.502Z,1010.06
2019-03-26T05:10:23.168Z,1010.08
2019-03-26T05:11:33.817Z,1010.05
2019-03-26T05:12:44.965Z,1010.07
2019-03-26T05:13:55.623Z,1010.06
2019-03-26T05:15:06.290Z,1010.05
2019-03-26T05:16:16.949Z,1010.06
2019-03-26T05:17:27.620Z,1010.10
2019-03-26T05:18:38.280Z,1010.08
2019-03-26T05:19:48.932Z,1010.10
2019-03-26T05:20:59.595Z,1010.04
2019-03-26T05:22:23.226Z,1010.03
2019-03-26T05:23:20.903Z,1010.02
2019-03-26T05:24:31.562Z,1010.01
2019-03-26T05:25:42.230Z,1009.96
2019-03-26T05:26:52.889Z,1010.00
2019-03-26T05:28:03.543Z,1010.05
2019-03-26T05:29:14.200Z,1010.03
2019-03-26T05:30:24.871Z,1010.05
2019-03-26T05:31:35.548Z,1010.02
2019-03-26T05:32:46.709Z,1010.03
2019-03-26T05:33:57.368Z,1010.04
2019-03-26T05:35:08.037Z,1010.09
2019-03-26T05:36:18.725Z,1010.05
2019-03-26T05:37:29.388Z,1010.04
2019-03-26T05:38:40.058Z,1010.08
2019-03-26T05:39:50.718Z,1010.10
2019-03-26T05:41:01.391Z,1010.12
2019-03-26T05:42:12.077Z,1010.11
2019-03-26T05:43:22.744Z,1010.13
2019-03-26T05:44:33.414Z,1010.15
2019-03-26T05:45:44.626Z,1010.15
2019-03-26T05:46:55.297Z,1010.18
2019-03-26T05:48:05.971Z,1010.19
2019-03-26T05:49:16.644Z,1010.22
2019-03-26T05:50:27.819Z,1010.17
2019-03-26T05:51:38.497Z,1010.19
2019-03-26T05:52:49.167Z,1010.15
2019-03-26T05:53:59.836Z,1010.16
2019-03-26T05:55:10.724Z,1010.13
2019-03-26T05:56:21.903Z,1010.14
2019-03-26T05:57:32.578Z,1010.12
2019-03-26T05:58:43.272Z,1010.16
2019-03-26T05:59:53.951Z,1010.19
2019-03-26T06:01:04.642Z,1010.18
2019-03-26T06:02:17.953Z,1010.16
2019-03-26T06:03:26.657Z,1010.10
2019-03-26T06:04:37.830Z,1010.12
2019-03-26T06:05:48.526Z,1010.11
2019-03-26T06:07:04.650Z,1010.20
2019-03-26T06:08:09.901Z,1010.19
2019-03-26T06:09:20.587Z,1010.19
2019-03-26T06:10:31.277Z,1010.23
2019-03-26T06:11:41.972Z,1010.19
2019-03-26T06:12:52.658Z,1010.21
2019-03-26T06:14:03.344Z,1010.28
2019-03-26T06:15:14.629Z,1010.30
2019-03-26T06:16:37.620Z,1010.31
2019-03-26T06:17:36.033Z,1010.36
2019-03-26T06:18:46.737Z,1010.39
2019-03-26T06:19:57.437Z,1010.37
2019-03-26T06:21:08.128Z,1010.30
2019-03-26T06:22:19.324Z,1010.31
2019-03-26T06:23:30.019Z,1010.30
2019-03-26T06:24:40.713Z,1010.28
2019-03-26T06:25:52.933Z,1010.30
2019-03-26T06:27:03.609Z,1010.32
2019-03-26T06:28:14.305Z,1010.33
2019-03-26T06:29:25.510Z,1010.35
2019-03-26T06:30:36.228Z,1010.32
2019-03-26T06:31:46.942Z,1010.27
2019-03-26T06:32:57.645Z,1010.23
2019-03-26T06:34:10.536Z,1010.19
2019-03-26T06:35:19.056Z,1010.23
2019-03-26T06:36:29.770Z,1010.26
2019-03-26T06:37:40.637Z,1010.26
2019-03-26T06:38:51.362Z,1010.30
2019-03-26T06:40:02.081Z,1010.29
2019-03-26T06:41:13.289Z,1010.32
2019-03-26T06:42:24.626Z,1010.34
2019-03-26T06:43:35.837Z,1010.31
2019-03-26T06:44:46.551Z,1010.31
2019-03-26T06:45:57.275Z,1010.32
2019-03-26T06:47:07.999Z,1010.32
2019-03-26T06:48:18.741Z,1010.33
2019-03-26T06:49:30.957Z,1010.33
2019-03-26T06:50:41.678Z,1010.29
2019-03-26T06:51:52.914Z,1010.33
2019-03-26T06:53:03.634Z,1010.35
2019-03-26T06:54:14.368Z,1010.34
2019-03-26T06:56:35.839Z,1010.31
2019-03-26T06:57:46.558Z,1010.35
2019-03-26T06:58:57.288Z,1010.37
2019-03-26T07:00:08.020Z,1010.36
2019-03-26T07:01:18.754Z,1010.35
2019-03-26T07:02:29.986Z,1010.38
2019-03-26T07:03:40.711Z,1010.38
2019-03-26T07:04:51.443Z,1010.43
2019-03-26T07:06:02.684Z,1010.43
2019-03-26T07:07:13.414Z,1010.41
2019-03-26T07:08:24.152Z,1010.37
2019-03-26T07:09:34.890Z,1010.37
2019-03-26T07:10:46.126Z,1010.41
2019-03-26T07:11:56.864Z,1010.45
2019-03-26T07:13:07.616Z,1010.46
2019-03-26T07:14:18.353Z,1010.45
2019-03-26T07:15:29.094Z,1010.47
2019-03-26T07:16:39.834Z,1010.44
2019-03-26T07:17:52.476Z,1010.49
2019-03-26T07:19:01.339Z,1010.46
2019-03-26T07:20:13.565Z,1010.47
2019-03-26T07:21:24.326Z,1010.43
2019-03-26T07:22:35.096Z,1010.46
2019-03-26T07:23:46.333Z,1010.52
2019-03-26T07:24:57.588Z,1010.46
2019-03-26T07:26:08.339Z,1010.47
2019-03-26T07:27:20.085Z,1010.49
2019-03-26T07:28:30.834Z,1010.48
2019-03-26T07:29:42.078Z,1010.50
2019-03-26T07:30:52.832Z,1010.51
2019-03-26T07:32:03.598Z,1010.49
2019-03-26T07:33:14.345Z,1010.42
2019-03-26T07:34:25.613Z,1010.45
2019-03-26T07:35:36.386Z,1010.42
2019-03-26T07:36:47.146Z,1010.41
2019-03-26T07:37:58.404Z,1010.46
2019-03-26T07:39:09.159Z,1010.42
2019-03-26T07:40:19.924Z,1010.41
2019-03-26T07:41:30.700Z,1010.41
2019-03-26T07:42:41.473Z,1010.37
2019-03-26T07:43:52.731Z,1010.38
2019-03-26T07:45:03.504Z,1010.33
2019-03-26T07:46:14.282Z,1010.32
2019-03-26T07:47:25.551Z,1010.37
2019-03-26T07:48:36.325Z,1010.31
2019-03-26T07:49:47.105Z,1010.29
2019-03-26T07:50:57.878Z,1010.25
2019-03-26T07:52:09.146Z,1010.20
2019-03-26T07:53:20.418Z,1010.14
2019-03-26T07:54:32.682Z,1010.11
2019-03-26T07:55:44.008Z,1010.08
2019-03-26T07:56:53.746Z,1010.08
2019-03-26T07:58:04.537Z,1010.12
2019-03-26T07:59:15.820Z,1010.09
2019-03-26T08:00:26.692Z,1010.10
2019-03-26T08:01:37.495Z,1009.96
2019-03-26T08:02:48.300Z,1009.99
2019-03-26T08:03:59.594Z,1009.88
2019-03-26T08:05:10.383Z,1009.88
2019-03-26T08:06:21.184Z,1009.91
2019-03-26T08:07:31.984Z,1009.92
2019-03-26T08:08:42.783Z,1009.94
2019-03-26T08:09:54.081Z,1009.95
2019-03-26T08:11:05.392Z,1009.92
2019-03-26T08:12:16.188Z,1009.91
2019-03-26T08:13:26.999Z,1009.89
2019-03-26T08:14:38.298Z,1009.86
2019-03-26T08:15:49.293Z,1009.84
2019-03-26T08:17:00.114Z,1009.87
2019-03-26T08:18:10.911Z,1009.94
2019-03-26T08:19:21.994Z,1010.01
2019-03-26T08:20:32.797Z,1009.98
2019-03-26T08:21:43.613Z,1009.96
2019-03-26T08:22:54.427Z,1009.89
2019-03-26T08:24:05.239Z,1009.91
2019-03-26T08:25:16.051Z,1009.90
2019-03-26T08:26:26.853Z,1009.86
2019-03-26T08:27:37.672Z,1009.91
2019-03-26T08:28:48.638Z,1009.93
2019-03-26T08:29:59.457Z,1009.94
2019-03-26T08:31:10.761Z,1009.97
2019-03-26T08:32:22.065Z,1009.98
2019-03-26T08:33:32.921Z,1009.93
2019-03-26T08:34:46.632Z,1009.86
2019-03-26T08:35:54.550Z,1009.86
2019-03-26T08:37:05.854Z,1009.87
2019-03-26T08:38:16.660Z,1009.86
2019-03-26T08:39:27.992Z,1009.98
2019-03-26T08:40:38.791Z,1010.02
2019-03-26T08:41:49.603Z,1010.09
2019-03-26T08:43:01.483Z,1010.18
2019-03-26T08:44:12.220Z,1010.17
2019-03-26T08:45:23.522Z,1010.17
2019-03-26T08:46:34.330Z,1010.26
2019-03-26T08:47:45.140Z,1010.29
2019-03-26T08:48:55.936Z,1010.30
2019-03-26T08:50:06.756Z,1010.26
2019-03-26T08:51:17.566Z,1010.28
2019-03-26T08:52:28.373Z,1010.29
2019-03-26T08:53:39.179Z,1010.35
2019-03-26T08:54:49.990Z,1010.46
2019-03-26T08:56:00.801Z,1010.48
2019-03-26T08:57:13.100Z,1010.55
2019-03-26T08:58:23.910Z,1010.55
2019-03-26T08:59:34.749Z,1010.62
2019-03-26T09:00:46.053Z,1010.59
2019-03-26T09:01:56.847Z,1010.57
2019-03-26T09:03:07.641Z,1010.62
2019-03-26T09:04:18.937Z,1010.68
2019-03-26T09:05:30.236Z,1010.70
2019-03-26T09:06:41.518Z,1010.76
2019-03-26T09:07:52.304Z,1010.85
2019-03-26T09:09:03.099Z,1010.96
2019-03-26T09:10:13.898Z,1010.98
2019-03-26T09:11:24.688Z,1011.07
2019-03-26T09:12:35.481Z,1011.16
2019-03-26T09:13:46.267Z,1011.16
2019-03-26T09:14:57.060Z,1011.21
2019-03-26T09:16:07.856Z,1011.21
2019-03-26T09:17:19.948Z,1011.28
2019-03-26T09:18:29.432Z,1011.23
2019-03-26T09:19:40.718Z,1011.21
2019-03-26T09:20:52.008Z,1011.22
2019-03-26T09:22:02.811Z,1011.17
2019-03-26T09:23:13.590Z,1011.11
2019-03-26T09:24:24.381Z,1011.01
2019-03-26T09:25:35.177Z,1010.99
2019-03-26T09:26:45.976Z,1010.89
2019-03-26T09:27:56.781Z,1010.87
2019-03-26T09:29:08.073Z,1010.75
2019-03-26T09:30:18.877Z,1010.66
2019-03-26T09:31:30.174Z,1010.63
2019-03-26T09:32:41.473Z,1010.66
2019-03-26T09:33:52.311Z,1010.71
2019-03-26T09:35:03.262Z,1010.72
2019-03-26T09:36:14.634Z,1010.71
2019-03-26T09:37:25.947Z,1010.77
2019-03-26T09:38:39.036Z,1010.79
2019-03-26T09:39:55.747Z,1010.85
2019-03-26T09:41:09.757Z,1010.91
2019-03-26T09:42:29.621Z,1010.97
2019-03-26T09:43:42.135Z,1010.99
2019-03-26T09:44:56.494Z,1011.00
2019-03-26T09:46:12.219Z,1011.03
2019-03-26T09:47:23.748Z,1011.04
2019-03-26T09:48:36.072Z,1011.03
2019-03-26T09:49:46.902Z,1011.03
2019-03-26T09:50:58.209Z,1010.95
2019-03-26T09:52:09.026Z,1010.93
2019-03-26T09:53:19.840Z,1010.84
2019-03-26T09:54:31.177Z,1010.78
2019-03-26T09:55:42.011Z,1010.64
2019-03-26T09:56:53.336Z,1010.58
2019-03-26T09:58:04.638Z,1010.45
2019-03-26T09:59:15.951Z,1010.38
2019-03-26T10:00:27.325Z,1010.25
2019-03-26T10:01:38.122Z,1010.12
2019-03-26T10:02:49.481Z,1010.06
2019-03-26T10:04:00.284Z,1009.92
2019-03-26T10:05:11.629Z,1009.80
2019-03-26T10:06:24.016Z,1009.75
2019-03-26T10:07:33.799Z,1009.72
2019-03-26T10:08:52.313Z,1009.66
2019-03-26T10:09:55.750Z,1009.62
2019-03-26T10:11:07.087Z,1009.59
2019-03-26T10:12:18.424Z,1009.54
2019-03-26T10:13:29.278Z,1009.58
2019-03-26T10:14:40.630Z,1009.53
2019-03-26T10:15:51.635Z,1009.49
2019-03-26T10:17:02.989Z,1009.33
2019-03-26T10:18:13.862Z,1009.34
2019-03-26T10:19:25.209Z,1009.26
2019-03-26T10:20:36.065Z,1009.07
2019-03-26T10:21:46.946Z,1009.01
2019-03-26T10:22:58.300Z,1008.90
2019-03-26T10:24:09.166Z,1008.81
2019-03-26T10:25:20.535Z,1008.83
2019-03-26T10:26:31.908Z,1008.82
2019-03-26T10:27:43.292Z,1008.74
2019-03-26T10:28:54.172Z,1008.58
2019-03-26T10:30:05.966Z,1008.44
2019-03-26T10:31:16.526Z,1008.43
2019-03-26T10:32:27.914Z,1008.34
2019-03-26T10:33:39.293Z,1008.40
2019-03-26T10:34:50.689Z,1008.39
2019-03-26T10:36:02.082Z,1008.36
2019-03-26T10:37:13.627Z,1008.33
2019-03-26T10:38:25.037Z,1008.30
2019-03-26T10:39:35.937Z,1008.20
2019-03-26T10:40:46.837Z,1008.16
2019-03-26T10:41:58.241Z,1008.21
2019-03-26T10:43:09.142Z,1008.27
2019-03-26T10:44:20.529Z,1008.28
2019-03-26T10:45:31.433Z,1008.15
2019-03-26T10:46:44.556Z,1008.21
2019-03-26T10:47:54.228Z,1008.28
2019-03-26T10:49:05.128Z,1008.39
2019-03-26T10:50:16.521Z,1008.42
2019-03-26T10:51:27.913Z,1008.51
2019-03-26T10:52:39.309Z,1008.53
2019-03-26T10:53:50.706Z,1008.54
2019-03-26T10:55:01.610Z,1008.49
2019-03-26T10:56:13.020Z,1008.35
2019-03-26T10:57:24.422Z,1008.40
2019-03-26T10:58:35.836Z,1008.36
2019-03-26T10:59:47.241Z,1008.32
2019-03-26T11:00:58.639Z,1008.41
2019-03-26T11:02:10.049Z,1008.21
2019-03-26T11:03:20.979Z,1007.88
2019-03-26T11:04:31.917Z,1007.55
2019-03-26T11:05:43.345Z,1007.02
2019-03-26T11:06:54.291Z,1006.66
2019-03-26T11:08:05.743Z,1006.60
2019-03-26T11:09:24.074Z,1006.72
2019-03-26T11:10:27.655Z,1006.75
2019-03-26T11:11:39.105Z,1006.82
2019-03-26T11:12:50.585Z,1006.90
2019-03-26T11:14:01.552Z,1007.03
2019-03-26T11:15:13.010Z,1007.07
2019-03-26T11:16:24.461Z,1007.21
2019-03-26T11:17:35.426Z,1007.29
2019-03-26T11:18:46.406Z,1007.28
2019-03-26T11:19:57.899Z,1007.38
2019-03-26T11:21:08.867Z,1007.46
2019-03-26T11:22:19.838Z,1007.57
2019-03-26T11:23:30.826Z,1007.72
2019-03-26T11:24:42.285Z,1007.76
2019-03-26T11:25:53.315Z,1007.67
2019-03-26T11:27:04.733Z,1007.59
2019-03-26T11:28:16.221Z,1007.53
2019-03-26T11:29:28.767Z,1007.53
2019-03-26T11:30:40.170Z,1007.56
2019-03-26T11:31:51.216Z,1007.58
2019-03-26T11:33:02.221Z,1007.38
2019-03-26T11:34:13.772Z,1005.96
2019-03-26T11:35:24.831Z,1005.19
2019-03-26T11:36:35.912Z,1004.87
2019-03-26T11:37:47.636Z,1005.03
2019-03-26T11:38:58.741Z,1005.56
2019-03-26T11:40:10.342Z,1006.12
2019-03-26T11:41:21.634Z,1005.05
2019-03-26T11:42:34.256Z,1005.03
2019-03-26T11:43:45.912Z,1005.78
2019-03-26T11:44:59.402Z,1006.09
2019-03-26T11:46:09.296Z,1005.69
2019-03-26T11:47:21.950Z,1005.74
2019-03-26T11:48:33.110Z,1005.86
2019-03-26T11:49:44.766Z,1006.35
2019-03-26T11:50:56.397Z,1006.83
2019-03-26T11:52:07.534Z,1007.35
2019-03-26T11:53:18.656Z,1007.69
2019-03-26T11:54:31.293Z,1008.16
2019-03-26T11:55:42.933Z,1008.47
2019-03-26T11:56:54.567Z,1007.47
2019-03-26T11:58:06.203Z,1006.89
2019-03-26T11:59:18.349Z,1007.09
2019-03-26T12:00:29.683Z,1007.46
2019-03-26T12:01:42.307Z,1007.85
2019-03-26T12:02:53.925Z,1008.16
2019-03-26T12:04:05.057Z,1008.42
2019-03-26T12:05:16.639Z,1008.71
2019-03-26T12:06:27.741Z,1008.93
2019-03-26T12:07:38.820Z,1009.20
2019-03-26T12:08:50.385Z,1009.41
2019-03-26T12:10:01.963Z,1009.64
2019-03-26T12:11:13.036Z,1009.88
2019-03-26T12:12:24.598Z,1009.84
2019-03-26T12:13:36.175Z,1009.76
2019-03-26T12:14:47.776Z,1009.14
2019-03-26T12:15:59.424Z,1008.49
2019-03-26T12:17:10.953Z,1008.35
2019-03-26T12:18:22.055Z,1008.36
2019-03-26T12:19:33.164Z,1008.42
2019-03-26T12:20:44.259Z,1008.36
2019-03-26T12:21:55.848Z,1008.50
2019-03-26T12:23:06.936Z,1008.63
2019-03-26T12:24:18.515Z,1008.80
2019-03-26T12:25:30.099Z,1009.00
2019-03-26T12:26:41.670Z,1009.28
2019-03-26T12:27:53.228Z,1009.35
2019-03-26T12:29:04.789Z,1009.47
2019-03-26T12:30:16.339Z,1009.56
2019-03-26T12:31:28.578Z,1009.58
2019-03-26T12:32:41.132Z,1009.81
2019-03-26T12:33:51.165Z,1010.02
2019-03-26T12:35:02.693Z,1010.04
2019-03-26T12:36:14.214Z,1010.09
2019-03-26T12:37:25.723Z,1010.15
2019-03-26T12:38:37.236Z,1010.16
2019-03-26T12:39:58.858Z,1010.19
2019-03-26T12:41:00.291Z,1010.31
2019-03-26T12:42:11.807Z,1010.32
2019-03-26T12:43:23.306Z,1010.37
2019-03-26T12:44:34.813Z,1010.41
2019-03-26T12:45:46.308Z,1010.40
2019-03-26T12:46:58.794Z,1010.43
2019-03-26T12:48:09.779Z,1010.50
2019-03-26T12:49:21.254Z,1010.54
2019-03-26T12:50:32.391Z,1010.59
2019-03-26T12:51:43.713Z,1010.61
2019-03-26T12:52:55.187Z,1010.70
2019-03-26T12:54:07.153Z,1010.80
2019-03-26T12:55:18.635Z,1010.88
2019-03-26T12:56:30.103Z,1010.86
2019-03-26T12:57:41.629Z,1010.88
2019-03-26T12:58:52.582Z,1010.94
2019-03-26T13:00:04.031Z,1010.89
2019-03-26T13:01:15.631Z,1010.93
2019-03-26T13:02:26.575Z,1010.86
2019-03-26T13:03:38.010Z,1010.80
2019-03-26T13:04:48.953Z,1010.68
2019-03-26T13:06:00.402Z,1010.59
2019-03-26T13:07:11.859Z,1010.67
2019-03-26T13:08:23.298Z,1010.74
2019-03-26T13:09:34.741Z,1010.66
2019-03-26T13:10:53.482Z,1010.60
2019-03-26T13:11:56.700Z,1010.12
2019-03-26T13:13:08.168Z,1009.49
2019-03-26T13:14:19.688Z,1009.16
2019-03-26T13:15:31.190Z,1008.87
2019-03-26T13:16:42.193Z,1009.01
2019-03-26T13:17:53.708Z,1008.40
2019-03-26T13:19:05.231Z,1007.96
2019-03-26T13:20:16.766Z,1007.91
2019-03-26T13:21:27.806Z,1007.62
2019-03-26T13:22:40.338Z,1007.62
2019-03-26T13:23:51.368Z,1007.65
2019-03-26T13:25:02.902Z,1007.67
2019-03-26T13:26:13.943Z,1007.94
2019-03-26T13:27:25.623Z,1008.15
2019-03-26T13:28:36.679Z,1008.05
2019-03-26T13:29:48.229Z,1008.02
2019-03-26T13:30:59.785Z,1007.50
2019-03-26T13:32:12.950Z,1007.07
2019-03-26T13:33:22.433Z,1007.11
2019-03-26T13:34:34.020Z,1007.07
2019-03-26T13:35:45.624Z,1006.80
2019-03-26T13:36:57.272Z,1006.57
2019-03-26T13:38:08.425Z,1006.38
2019-03-26T13:39:19.590Z,1006.12
2019-03-26T13:40:31.274Z,1005.84
2019-03-26T13:41:42.964Z,1005.71
2019-03-26T13:42:54.637Z,1005.63
2019-03-26T13:44:06.327Z,1005.77
2019-03-26T13:45:18.038Z,1005.90
2019-03-26T13:46:29.746Z,1005.98
2019-03-26T13:47:40.965Z,1006.11
2019-03-26T13:48:52.696Z,1005.89
2019-03-26T13:50:03.940Z,1005.80
2019-03-26T13:51:15.198Z,1005.54
2019-03-26T13:52:26.959Z,1005.41
2019-03-26T13:53:38.718Z,1005.32
2019-03-26T13:54:49.976Z,1005.37
2019-03-26T13:56:01.242Z,1005.45
2019-03-26T13:57:13.004Z,1005.66
2019-03-26T13:58:24.741Z,1005.79
2019-03-26T13:59:36.484Z,1006.07
2019-03-26T14:00:48.208Z,1006.07
2019-03-26T14:01:59.931Z,1006.06
2019-03-26T14:03:11.135Z,1006.17
2019-03-26T14:04:22.330Z,1006.55
2019-03-26T14:05:34.001Z,1006.75
2019-03-26T14:06:45.658Z,1007.05
2019-03-26T14:07:57.343Z,1007.40
2019-03-26T14:09:08.971Z,1007.51
2019-03-26T14:10:20.099Z,1007.86
2019-03-26T14:11:31.711Z,1008.20
2019-03-26T14:12:43.308Z,1008.54
2019-03-26T14:13:54.891Z,1008.77
2019-03-26T14:15:06.465Z,1009.07
2019-03-26T14:16:17.540Z,1009.21
2019-03-26T14:17:29.110Z,1009.39
2019-03-26T14:18:40.657Z,1009.45
2019-03-26T14:19:51.714Z,1009.56